createdAt,value
2019-02-05T00:00:48.448Z,101611.52
2019-02-05T00:03:52.904Z,101617.67
2019-02-05T00:06:57.968Z,101614.33
2019-02-05T00:10:02.378Z,101614.37
2019-02-05T00:13:07.022Z,101630.01
2019-02-05T00:16:12.538Z,101625.91
2019-02-05T00:19:16.881Z,101632.95
2019-02-05T00:22:21.310Z,101630.25
2019-02-05T00:25:25.584Z,101648.11
2019-02-05T00:28:31.604Z,101646.63
2019-02-05T00:31:35.888Z,101642.64
2019-02-05T00:34:40.303Z,101646.79
2019-02-05T00:37:44.800Z,101636.38
2019-02-05T00:40:49.086Z,101632.35
2019-02-05T00:43:53.390Z,101639.23
2019-02-05T00:46:57.688Z,101639.42
2019-02-05T00:50:01.985Z,101648.55
2019-02-05T00:53:06.283Z,101631.42
2019-02-05T00:56:17.414Z,101622.11
2019-02-05T00:59:16.642Z,101631.73
2019-02-05T01:02:24.103Z,101638.37
2019-02-05T01:05:28.789Z,101636.47
2019-02-05T01:08:33.065Z,101640.59
2019-02-05T01:11:39.426Z,101645.36
2019-02-05T01:14:43.811Z,101643.16
2019-02-05T01:17:50.517Z,101646.74
2019-02-05T01:20:54.816Z,101650.30
2019-02-05T01:23:59.111Z,101645.88
2019-02-05T01:27:03.762Z,101641.19
2019-02-05T01:30:10.636Z,101646.22
2019-02-05T01:33:14.929Z,101643.08
2019-02-05T01:36:19.429Z,101639.87
2019-02-05T01:39:23.741Z,101644.34
2019-02-05T01:42:28.033Z,101647.80
2019-02-05T01:45:32.327Z,101649.91
2019-02-05T01:48:36.607Z,101658.71
2019-02-05T01:51:40.996Z,101654.34
2019-02-05T01:54:45.785Z,101656.11
2019-02-05T01:57:50.155Z,101661.67
2019-02-05T02:00:57.399Z,101660.19
2019-02-05T02:04:01.837Z,101652.12
2019-02-05T02:07:06.728Z,101665.13
2019-02-05T02:10:13.610Z,101665.86
2019-02-05T02:13:18.065Z,101668.35
2019-02-05T02:16:22.351Z,101666.52
2019-02-05T02:19:26.771Z,101661.43
2019-02-05T02:22:33.001Z,101668.67
2019-02-05T02:25:44.308Z,101663.74
2019-02-05T02:28:48.772Z,101673.36
2019-02-05T02:31:54.536Z,101668.67
2019-02-05T02:34:59.206Z,101660.52
2019-02-05T02:38:04.112Z,101680.66
2019-02-05T02:41:08.632Z,101678.86
2019-02-05T02:44:13.286Z,101695.63
2019-02-05T02:47:17.561Z,101688.16
2019-02-05T02:50:21.866Z,101692.69
2019-02-05T02:53:26.423Z,101688.91
2019-02-05T02:56:30.782Z,101688.58
2019-02-05T02:59:35.110Z,101694.18
2019-02-05T03:02:39.582Z,101682.88
2019-02-05T03:05:44.336Z,101691.95
2019-02-05T03:08:48.767Z,101686.75
2019-02-05T03:11:53.444Z,101677.23
2019-02-05T03:14:57.741Z,101670.55
2019-02-05T03:18:03.867Z,101676.22
2019-02-05T03:21:08.150Z,101675.73
2019-02-05T03:24:12.450Z,101682.38
2019-02-05T03:27:18.262Z,101677.48
2019-02-05T03:30:23.305Z,101672.30
2019-02-05T03:33:27.708Z,101670.97
2019-02-05T03:36:34.328Z,101667.59
2019-02-05T03:39:38.606Z,101664.63
2019-02-05T03:42:47.249Z,101668.64
2019-02-05T03:45:51.836Z,101668.16
2019-02-05T03:48:56.696Z,101667.20
2019-02-05T03:52:19.278Z,101671.71
2019-02-05T03:56:08.173Z,101665.88
2019-02-05T03:59:43.331Z,101665.25
2019-02-05T04:03:02.999Z,101674.81
2019-02-05T04:06:16.931Z,101680.91
2019-02-05T04:09:53.347Z,101671.29
2019-02-05T04:13:13.269Z,101682.66
2019-02-05T04:17:12.447Z,101684.46
2019-02-05T04:20:53.564Z,101681.95
2019-02-05T04:24:37.074Z,101686.97
2019-02-05T04:28:28.461Z,101692.09
2019-02-05T04:32:15.240Z,101699.06
2019-02-05T04:35:55.362Z,101710.45
2019-02-05T04:39:24.549Z,101705.18
2019-02-05T04:43:00.877Z,101705.27
2019-02-05T04:46:54.085Z,101700.74
2019-02-05T04:50:48.939Z,101707.19
2019-02-05T04:54:17.788Z,101715.11
2019-02-05T04:58:05.215Z,101708.52
2019-02-05T05:01:49.898Z,101716.75
2019-02-05T05:05:38.163Z,101722.91
2019-02-05T05:09:50.982Z,101723.75
2019-02-05T05:12:55.257Z,101717.87
2019-02-05T05:15:59.731Z,101721.67
2019-02-05T05:19:06.067Z,101721.28
2019-02-05T05:22:13.619Z,101716.62
2019-02-05T05:25:20.027Z,101728.20
2019-02-05T05:28:24.800Z,101728.13
2019-02-05T05:31:29.554Z,101732.56
2019-02-05T05:34:37.172Z,101740.62
2019-02-05T05:37:41.473Z,101749.67
2019-02-05T05:40:46.164Z,101749.27
2019-02-05T05:43:50.454Z,101752.06
2019-02-05T05:47:03.659Z,101759.31
2019-02-05T05:50:10.599Z,101756.59
2019-02-05T05:53:15.116Z,101762.75
2019-02-05T05:56:22.171Z,101768.94
2019-02-05T05:59:28.545Z,101766.69
2019-02-05T06:02:35.300Z,101779.46
2019-02-05T06:05:39.697Z,101779.88
2019-02-05T06:08:43.993Z,101786.47
2019-02-05T06:11:48.323Z,101781.44
2019-02-05T06:14:52.904Z,101788.52
2019-02-05T06:17:57.192Z,101793.02
2019-02-05T06:21:01.586Z,101797.66
2019-02-05T06:24:06.235Z,101798.80
2019-02-05T06:27:10.847Z,101806.86
2019-02-05T06:30:16.160Z,101804.48
2019-02-05T06:33:23.543Z,101809.68
2019-02-05T06:36:28.171Z,101812.38
2019-02-05T06:39:32.445Z,101824.12
2019-02-05T06:42:36.878Z,101825.07
2019-02-05T06:45:41.682Z,101824.15
2019-02-05T06:48:46.357Z,101824.57
2019-02-05T06:51:50.658Z,101830.72
2019-02-05T06:54:54.950Z,101838.44
2019-02-05T06:57:59.289Z,101839.28
2019-02-05T07:01:06.316Z,101844.27
2019-02-05T07:04:10.601Z,101845.17
2019-02-05T07:07:14.912Z,101845.17
2019-02-05T07:10:21.063Z,101851.75
2019-02-05T07:13:25.488Z,101853.74
2019-02-05T07:16:29.831Z,101861.12
2019-02-05T07:19:34.160Z,101857.80
2019-02-05T07:22:38.746Z,101855.68
2019-02-05T07:25:43.147Z,101863.66
2019-02-05T07:28:58.199Z,101867.30
2019-02-05T07:31:56.351Z,101867.64
2019-02-05T07:35:01.259Z,101874.30
2019-02-05T07:38:07.894Z,101876.42
2019-02-05T07:41:12.199Z,101881.45
2019-02-05T07:44:16.588Z,101885.53
2019-02-05T07:47:23.379Z,101883.33
2019-02-05T07:50:27.593Z,101890.02
2019-02-05T07:53:33.277Z,101894.61
2019-02-05T07:56:37.750Z,101896.95
2019-02-05T07:59:47.010Z,101900.20
2019-02-05T08:02:50.280Z,101896.70
2019-02-05T08:05:54.585Z,101907.48
2019-02-05T08:08:59.015Z,101908.69
2019-02-05T08:12:03.326Z,101912.18
2019-02-05T08:15:09.491Z,101910.09
2019-02-05T08:18:17.135Z,101923.78
2019-02-05T08:21:21.459Z,101930.19
2019-02-05T08:24:25.887Z,101935.20
2019-02-05T08:27:30.708Z,101948.17
2019-02-05T08:30:41.185Z,101941.14
2019-02-05T08:33:45.678Z,101942.62
2019-02-05T08:36:49.989Z,101953.77
2019-02-05T08:39:54.463Z,101953.04
2019-02-05T08:42:58.795Z,101943.58
2019-02-05T08:46:03.335Z,101947.38
2019-02-05T08:49:07.630Z,101944.75
2019-02-05T08:52:12.054Z,101946.57
2019-02-05T08:55:18.223Z,101946.47
2019-02-05T08:58:31.011Z,101957.48
2019-02-05T09:01:36.453Z,101953.81
2019-02-05T09:04:40.856Z,101956.52
2019-02-05T09:07:45.223Z,101958.10
2019-02-05T09:10:49.645Z,101965.87
2019-02-05T09:13:54.083Z,101968.02
2019-02-05T09:16:58.503Z,101972.64
2019-02-05T09:20:02.813Z,101967.39
2019-02-05T09:23:07.373Z,101970.19
2019-02-05T09:26:11.788Z,101968.64
2019-02-05T09:29:17.814Z,101980.95
2019-02-05T09:32:22.148Z,101973.44
2019-02-05T09:35:26.640Z,101978.71
2019-02-05T09:38:31.098Z,101975.24
2019-02-05T09:41:35.654Z,101983.64
2019-02-05T09:44:39.961Z,101991.73
2019-02-05T09:47:44.552Z,101985.77
2019-02-05T09:50:49.242Z,101994.86
2019-02-05T09:53:53.642Z,101990.54
2019-02-05T09:56:59.160Z,101991.56
2019-02-05T10:00:04.890Z,101999.70
2019-02-05T10:03:09.726Z,101995.55
2019-02-05T10:06:14.050Z,101999.36
2019-02-05T10:09:18.948Z,101997.71
2019-02-05T10:12:23.376Z,101996.11
2019-02-05T10:15:29.896Z,102010.11
2019-02-05T10:18:35.578Z,102003.94
2019-02-05T10:21:39.910Z,102006.73
2019-02-05T10:24:49.864Z,102016.67
2019-02-05T10:27:55.678Z,102011.90
2019-02-05T10:31:00.114Z,102011.05
2019-02-05T10:34:05.133Z,102017.78
2019-02-05T10:37:09.564Z,102012.03
2019-02-05T10:40:14.379Z,102016.55
2019-02-05T10:43:21.331Z,102018.77
2019-02-05T10:46:28.950Z,102015.28
2019-02-05T10:49:33.317Z,102018.95
2019-02-05T10:52:37.687Z,102018.95
2019-02-05T10:55:42.116Z,102008.43
2019-02-05T10:58:46.487Z,102020.70
2019-02-05T11:01:50.817Z,102019.31
2019-02-05T11:04:55.401Z,102025.48
2019-02-05T11:07:59.975Z,102018.83
2019-02-05T11:11:04.289Z,102025.42
2019-02-05T11:14:08.978Z,102025.84
2019-02-05T11:17:13.323Z,102037.86
2019-02-05T11:20:19.990Z,102030.00
2019-02-05T11:23:27.130Z,102017.50
2019-02-05T11:26:31.460Z,102039.95
2019-02-05T11:29:38.739Z,102044.80
2019-02-05T11:32:43.162Z,102035.98
2019-02-05T11:35:47.487Z,102044.83
2019-02-05T11:38:51.813Z,102037.32
2019-02-05T11:41:56.809Z,102039.96
2019-02-05T11:45:01.189Z,102034.84
2019-02-05T11:48:08.617Z,102026.87
2019-02-05T11:51:13.118Z,102029.57
2019-02-05T11:54:17.631Z,102037.48
2019-02-05T11:57:25.374Z,102031.68
2019-02-05T12:00:51.865Z,102039.12
2019-02-05T12:03:56.477Z,102034.38
2019-02-05T12:07:01.017Z,102040.21
2019-02-05T12:10:07.278Z,102037.44
2019-02-05T12:13:11.803Z,102039.13
2019-02-05T12:16:16.246Z,102036.42
2019-02-05T12:19:20.715Z,102045.23
2019-02-05T12:22:27.046Z,102044.33
2019-02-05T12:25:31.424Z,102043.02
2019-02-05T12:28:38.057Z,102039.95
2019-02-05T12:31:42.742Z,102047.47
2019-02-05T12:34:47.048Z,102045.52
2019-02-05T12:37:51.558Z,102044.97
2019-02-05T12:40:56.374Z,102051.08
2019-02-05T12:44:00.712Z,102053.71
2019-02-05T12:47:07.258Z,102059.48
2019-02-05T12:50:24.347Z,102049.84
2019-02-05T12:53:28.690Z,102061.71
2019-02-05T12:56:33.101Z,102067.00
2019-02-05T12:59:37.522Z,102063.99
2019-02-05T13:02:41.864Z,102060.11
2019-02-05T13:05:46.486Z,102068.84
2019-02-05T13:08:50.893Z,102059.63
2019-02-05T13:11:55.362Z,102079.43
2019-02-05T13:14:59.687Z,102079.13
2019-02-05T13:18:04.575Z,102070.31
2019-02-05T13:21:08.982Z,102070.75
2019-02-05T13:24:16.475Z,102076.59
2019-02-05T13:27:19.549Z,102082.22
2019-02-05T13:30:27.563Z,102081.30
2019-02-05T13:33:31.844Z,102089.64
2019-02-05T13:36:36.167Z,102084.84
2019-02-05T13:39:43.582Z,102088.95
2019-02-05T13:42:48.088Z,102084.55
2019-02-05T13:45:52.923Z,102089.71
2019-02-05T13:48:57.279Z,102086.59
2019-02-05T13:52:01.758Z,102085.70
2019-02-05T13:55:07.445Z,102087.55
2019-02-05T13:58:12.925Z,102082.22
2019-02-05T14:01:20.009Z,102089.73
2019-02-05T14:04:23.595Z,102097.30
2019-02-05T14:07:27.926Z,102101.73
2019-02-05T14:10:34.556Z,102096.82
2019-02-05T14:13:38.977Z,102098.63
2019-02-05T14:16:43.506Z,102108.70
2019-02-05T14:19:48.248Z,102107.38
2019-02-05T14:22:52.757Z,102117.95
2019-02-05T14:25:59.644Z,102106.89
2019-02-05T14:29:03.238Z,102112.23
2019-02-05T14:32:10.533Z,102111.73
2019-02-05T14:35:15.629Z,102117.02
2019-02-05T14:38:23.098Z,102112.98
2019-02-05T14:41:27.524Z,102108.04
2019-02-05T14:44:32.121Z,102115.44
2019-02-05T14:47:36.535Z,102123.41
2019-02-05T14:50:41.993Z,102133.56
2019-02-05T14:53:46.316Z,102128.70
2019-02-05T14:56:50.757Z,102123.02
2019-02-05T14:59:55.112Z,102135.09
2019-02-05T15:03:01.963Z,102134.12
2019-02-05T15:06:06.008Z,102134.94
2019-02-05T15:09:11.078Z,102151.16
2019-02-05T15:12:15.556Z,102151.98
2019-02-05T15:15:20.475Z,102151.08
2019-02-05T15:18:25.575Z,102153.72
2019-02-05T15:21:30.302Z,102154.13
2019-02-05T15:24:37.445Z,102154.91
2019-02-05T15:27:40.974Z,102158.73
2019-02-05T15:30:46.140Z,102161.36
2019-02-05T15:33:55.023Z,102163.59
2019-02-05T15:36:59.349Z,102173.16
2019-02-05T15:40:03.808Z,102170.43
2019-02-05T15:43:08.493Z,102175.63
2019-02-05T15:46:12.951Z,102175.95
2019-02-05T15:49:19.865Z,102177.25
2019-02-05T15:52:24.199Z,102179.83
2019-02-05T15:55:28.540Z,102184.92
2019-02-05T15:58:33.465Z,102189.58
2019-02-05T16:01:37.822Z,102194.25
2019-02-05T16:04:42.172Z,102194.14
2019-02-05T16:07:46.915Z,102192.31
2019-02-05T16:10:51.244Z,102196.27
2019-02-05T16:13:55.580Z,102190.70
2019-02-05T16:17:00.391Z,102194.11
2019-02-05T16:20:05.536Z,102200.94
2019-02-05T16:23:09.892Z,102210.56
2019-02-05T16:26:14.596Z,102211.37
2019-02-05T16:29:19.037Z,102209.86
2019-02-05T16:32:23.400Z,102205.34
2019-02-05T16:35:27.904Z,102213.13
2019-02-05T16:38:32.399Z,102206.84
2019-02-05T16:41:36.704Z,102215.97
2019-02-05T16:44:41.083Z,102210.28
2019-02-05T16:47:45.431Z,102218.20
2019-02-05T16:50:50.023Z,102224.99
2019-02-05T16:53:54.362Z,102224.80
2019-02-05T16:56:58.741Z,102225.61
2019-02-05T17:00:03.064Z,102223.67
2019-02-05T17:03:07.639Z,102234.10
2019-02-05T17:06:12.007Z,102236.95
2019-02-05T17:09:17.397Z,102231.84
2019-02-05T17:12:21.713Z,102240.47
2019-02-05T17:15:26.236Z,102240.75
2019-02-05T17:18:30.832Z,102249.38
2019-02-05T17:21:35.198Z,102246.60
2019-02-05T17:24:39.508Z,102248.64
2019-02-05T17:27:43.849Z,102260.82
2019-02-05T17:30:48.187Z,102263.78
2019-02-05T17:33:52.601Z,102255.32
2019-02-05T17:36:57.136Z,102264.05
2019-02-05T17:40:01.720Z,102270.57
2019-02-05T17:43:06.970Z,102266.68
2019-02-05T17:46:11.502Z,102274.52
2019-02-05T17:49:15.976Z,102277.00
2019-02-05T17:52:20.279Z,102286.27
2019-02-05T17:55:24.680Z,102282.98
2019-02-05T17:58:29.019Z,102272.12
2019-02-05T18:01:33.336Z,102281.34
2019-02-05T18:04:38.088Z,102275.98
2019-02-05T18:07:42.497Z,102280.70
2019-02-05T18:10:47.441Z,102294.40
2019-02-05T18:13:54.865Z,102290.06
2019-02-05T18:16:59.192Z,102294.52
2019-02-05T18:20:03.919Z,102288.87
2019-02-05T18:23:08.308Z,102292.84
2019-02-05T18:26:15.201Z,102291.56
2019-02-05T18:29:19.610Z,102298.50
2019-02-05T18:32:24.035Z,102293.75
2019-02-05T18:35:31.594Z,102298.05
2019-02-05T18:38:36.011Z,102306.24
2019-02-05T18:41:40.340Z,102301.88
2019-02-05T18:44:44.653Z,102299.30
2019-02-05T18:47:48.993Z,102290.16
2019-02-05T18:50:53.414Z,102300.05
2019-02-05T18:53:59.446Z,102302.98
2019-02-05T18:57:04.026Z,102295.86
2019-02-05T19:00:24.450Z,102306.32
2019-02-05T19:03:31.805Z,102309.88
2019-02-05T19:06:36.226Z,102306.89
2019-02-05T19:09:40.600Z,102303.07
2019-02-05T19:12:44.957Z,102311.50
2019-02-05T19:15:49.462Z,102309.70
2019-02-05T19:18:54.058Z,102305.47
2019-02-05T19:21:58.402Z,102305.38
2019-02-05T19:25:17.690Z,102310.19
2019-02-05T19:28:28.462Z,102308.97
2019-02-05T19:31:35.776Z,102315.75
2019-02-05T19:34:40.447Z,102308.46
2019-02-05T19:37:44.802Z,102310.49
2019-02-05T19:40:57.074Z,102305.70
2019-02-05T19:43:55.459Z,102304.30
2019-02-05T19:47:03.375Z,102311.66
2019-02-05T19:50:07.910Z,102299.66
2019-02-05T19:53:12.822Z,102300.05
2019-02-05T19:56:17.257Z,102301.76
2019-02-05T19:59:21.789Z,102303.45
2019-02-05T20:02:26.174Z,102314.76
2019-02-05T20:05:30.718Z,102317.45
2019-02-05T20:08:36.830Z,102311.37
2019-02-05T20:11:41.624Z,102318.92
2019-02-05T20:14:46.132Z,102326.34
2019-02-05T20:17:50.681Z,102327.39
2019-02-05T20:20:55.138Z,102333.07
2019-02-05T20:23:59.806Z,102338.20
2019-02-05T20:27:04.732Z,102346.09
2019-02-05T20:30:11.667Z,102344.30
2019-02-05T20:33:16.008Z,102350.84
2019-02-05T20:36:20.575Z,102344.70
2019-02-05T20:39:28.224Z,102346.95
2019-02-05T20:42:32.578Z,102350.98
2019-02-05T20:45:40.061Z,102353.77
2019-02-05T20:48:48.357Z,102353.90
2019-02-05T20:51:53.171Z,102352.94
2019-02-05T20:54:58.327Z,102360.19
2019-02-05T20:58:03.336Z,102364.07
2019-02-05T21:01:07.730Z,102366.58
2019-02-05T21:04:21.338Z,102379.66
2019-02-05T21:07:26.357Z,102369.30
2019-02-05T21:10:30.676Z,102372.16
2019-02-05T21:13:35.008Z,102372.51
2019-02-05T21:16:39.799Z,102370.68
2019-02-05T21:19:44.242Z,102374.95
2019-02-05T21:22:56.706Z,102372.95
2019-02-05T21:26:02.507Z,102375.56
2019-02-05T21:29:06.807Z,102381.20
2019-02-05T21:32:11.167Z,102380.56
2019-02-05T21:35:15.689Z,102376.48
2019-02-05T21:38:20.000Z,102379.12
2019-02-05T21:41:24.489Z,102380.82
2019-02-05T21:44:30.461Z,102377.61
2019-02-05T21:47:36.962Z,102373.95
2019-02-05T21:50:41.256Z,102368.78
2019-02-05T21:53:46.747Z,102375.97
2019-02-05T21:56:51.022Z,102371.23
2019-02-05T21:59:55.458Z,102382.81
2019-02-05T22:03:00.188Z,102379.83
2019-02-05T22:06:05.171Z,102388.30
2019-02-05T22:09:12.302Z,102389.58
2019-02-05T22:12:16.670Z,102388.20
2019-02-05T22:15:21.266Z,102379.52
2019-02-05T22:18:25.580Z,102377.97
2019-02-05T22:21:29.892Z,102377.70
2019-02-05T22:24:34.214Z,102377.28
2019-02-05T22:27:39.129Z,102375.61
2019-02-05T22:30:43.457Z,102370.03
2019-02-05T22:33:47.931Z,102364.52
2019-02-05T22:36:52.345Z,102360.77
2019-02-05T22:39:58.420Z,102361.34
2019-02-05T22:43:02.752Z,102356.17
2019-02-05T22:46:09.991Z,102365.47
2019-02-05T22:49:14.695Z,102365.58
2019-02-05T22:52:19.389Z,102364.07
2019-02-05T22:55:23.957Z,102369.33
2019-02-05T22:58:28.406Z,102362.66
2019-02-05T23:01:57.729Z,102359.34
2019-02-05T23:05:26.060Z,102360.48
2019-02-05T23:08:32.426Z,102366.47
2019-02-05T23:12:15.406Z,102359.06
2019-02-05T23:15:22.585Z,102351.14
2019-02-05T23:18:29.434Z,102358.13
2019-02-05T23:21:34.745Z,102354.09
2019-02-05T23:24:39.050Z,102371.36
2019-02-05T23:27:43.380Z,102368.47
2019-02-05T23:30:47.948Z,102362.24
2019-02-05T23:33:52.464Z,102362.73
2019-02-05T23:36:56.826Z,102357.10
2019-02-05T23:40:01.205Z,102349.76
2019-02-05T23:43:06.112Z,102348.77
2019-02-05T23:46:13.174Z,102352.48
2019-02-05T23:49:17.475Z,102352.36
2019-02-05T23:52:21.966Z,102354.55
2019-02-05T23:55:26.318Z,102349.86
2019-02-05T23:58:30.614Z,102358.75
